TimePST,TemperatureF,Dew PointF,Humidity,Sea Level PressureIn,VisibilityMPH,Wind Direction,Wind SpeedMPH,Gust SpeedMPH,PrecipitationIn,Events,Conditions,WindDirDegrees,DateUTC
12:54 AM,48.9,37.9,66,30.01,10.0,NNE,4.6,-,N/A,,Clear,30,2013-01-23 08:54:00
1:54 AM,48.9,37.9,66,30.01,10.0,NE,3.5,-,N/A,,Clear,50,2013-01-23 09:54:00
2:54 AM,48.9,39.0,69,30.00,10.0,Calm,Calm,-,N/A,,Overcast,0,2013-01-23 10:54:00
4:54 AM,51.1,37.0,59,29.96,10.0,NE,5.8,-,N/A,,Clear,40,2013-01-23 12:54:00
5:54 AM,52.0,36.0,54,29.95,10.0,ENE,5.8,-,N/A,,Clear,70,2013-01-23 13:54:00
6:54 AM,52.0,37.0,57,29.97,10.0,East,8.1,-,N/A,,Partly Cloudy,90,2013-01-23 14:54:00
7:54 AM,48.9,39.0,69,29.97,10.0,South,3.5,-,N/A,,Mostly Cloudy,180,2013-01-23 15:54:00
8:54 AM,48.9,41.0,74,30.00,10.0,NNW,3.5,-,N/A,,Scattered Clouds,340,2013-01-23 16:54:00
9:54 AM,54.0,39.0,57,30.01,10.0,ENE,5.8,-,N/A,,Clear,70,2013-01-23 17:54:00
10:54 AM,55.0,39.0,55,30.03,10.0,East,3.5,-,N/A,,Overcast,80,2013-01-23 18:54:00
11:54 AM,53.1,45.0,74,30.03,9.0,Calm,Calm,-,0.00,Rain,Light Rain,0,2013-01-23 19:54:00
12:54 PM,52.0,44.1,74,30.00,10.0,NE,8.1,-,0.00,,Overcast,50,2013-01-23 20:54:00
1:54 PM,51.1,44.1,77,30.00,9.0,East,5.8,-,0.00,Rain,Light Rain,100,2013-01-23 21:54:00
2:54 PM,50.0,44.1,80,30.02,5.0,Variable,3.5,-,0.01,Rain,Light Rain,0,2013-01-23 22:54:00
3:07 PM,50.0,44.6,82,30.06,2.0,SSE,8.1,-,0.04,Rain,Rain,150,2013-01-23 23:07:00
3:17 PM,50.0,46.4,87,30.07,2.0,SW,4.6,-,0.08,Rain,Rain,230,2013-01-23 23:17:00
3:54 PM,50.0,46.9,89,30.05,2.0,NE,4.6,-,0.12,Rain,Light Rain,50,2013-01-23 23:54:00
4:17 PM,50.0,46.4,87,30.07,4.0,Calm,Calm,-,0.01,Rain,Light Rain,0,2013-01-24 00:17:00
4:40 PM,50.0,46.4,87,30.06,2.0,NNW,6.9,-,0.03,Rain,Light Rain,330,2013-01-24 00:40:00
4:47 PM,50.0,46.4,87,30.05,1.5,North,9.2,-,0.04,Rain,Rain,360,2013-01-24 00:47:00
4:54 PM,50.0,48.0,93,30.02,2.0,North,9.2,-,0.04,Rain,Light Rain,10,2013-01-24 00:54:00
5:09 PM,50.0,48.2,94,30.06,3.0,North,5.8,-,0.00,,Overcast,360,2013-01-24 01:09:00
5:54 PM,50.0,48.0,93,30.05,5.0,NNE,4.6,-,0.00,,Overcast,20,2013-01-24 01:54:00
6:54 PM,50.0,48.0,93,30.04,5.0,North,11.5,-,0.00,,Overcast,10,2013-01-24 02:54:00
8:54 PM,50.0,48.0,93,30.07,5.0,South,3.5,-,0.00,Rain,Light Rain,190,2013-01-24 04:54:00
9:54 PM,48.9,46.0,90,30.07,4.0,East,13.8,-,0.00,Rain,Light Rain,80,2013-01-24 05:54:00
10:54 PM,48.9,46.9,93,30.08,5.0,Calm,Calm,-,0.00,,Overcast,0,2013-01-24 06:54:00
11:54 PM,50.0,48.0,93,30.06,5.0,Calm,Calm,-,N/A,,Overcast,0,2013-01-24 07:54:00